sensor_id;sensor_type;location;lat;lon;timestamp;P1;P2;P0
76661;PMS5003;65579;45.534;6.212;2023-05-14T00:00:24;8;8;
76661;PMS5003;65579;45.534;6.212;2023-05-14T00:02:49;7;7;
76661;PMS5003;65579;45.534;6.212;2023-05-14T00:05:15;5;5;
76661;PMS5003;65579;45.534;6.212;2023-05-14T00:07:40;8;5;
76661;PMS5003;65579;45.534;6.212;2023-05-14T00:10:05;8;6;
76661;PMS5003;65579;45.534;6.212;2023-05-14T00:12:30;8;7;
76661;PMS5003;65579;45.534;6.212;2023-05-14T00:14:55;10;6;
76661;PMS5003;65579;45.534;6.212;2023-05-14T00:17:21;7;7;
76661;PMS5003;65579;45.534;6.212;2023-05-14T00:19:46;6;6;
76661;PMS5003;65579;45.534;6.212;2023-05-14T00:22:11;6;6;
76661;PMS5003;65579;45.534;6.212;2023-05-14T00:24:36;7;6;
76661;PMS5003;65579;45.534;6.212;2023-05-14T00:27:02;5;5;
76661;PMS5003;65579;45.534;6.212;2023-05-14T00:29:27;6;6;
76661;PMS5003;65579;45.534;6.212;2023-05-14T00:31:52;4;4;
76661;PMS5003;65579;45.534;6.212;2023-05-14T00:34:17;5;5;
76661;PMS5003;65579;45.534;6.212;2023-05-14T00:36:42;5;5;
76661;PMS5003;65579;45.534;6.212;2023-05-14T00:39:08;5;4;
76661;PMS5003;65579;45.534;6.212;2023-05-14T00:41:32;6;5;
76661;PMS5003;65579;45.534;6.212;2023-05-14T00:43:58;8;7;
76661;PMS5003;65579;45.534;6.212;2023-05-14T00:46:23;2;2;
76661;PMS5003;65579;45.534;6.212;2023-05-14T00:48:48;4;4;
76661;PMS5003;65579;45.534;6.212;2023-05-14T00:51:13;3;3;
76661;PMS5003;65579;45.534;6.212;2023-05-14T00:53:38;4;4;
76661;PMS5003;65579;45.534;6.212;2023-05-14T00:56:04;6;6;
76661;PMS5003;65579;45.534;6.212;2023-05-14T00:58:29;4;4;
76661;PMS5003;65579;45.534;6.212;2023-05-14T01:00:54;6;6;
76661;PMS5003;65579;45.534;6.212;2023-05-14T01:03:19;5;5;
76661;PMS5003;65579;45.534;6.212;2023-05-14T01:05:46;5;5;
76661;PMS5003;65579;45.534;6.212;2023-05-14T01:08:12;5;5;
76661;PMS5003;65579;45.534;6.212;2023-05-14T01:10:36;8;8;
76661;PMS5003;65579;45.534;6.212;2023-05-14T01:13:01;7;7;
76661;PMS5003;65579;45.534;6.212;2023-05-14T01:15:25;6;6;
76661;PMS5003;65579;45.534;6.212;2023-05-14T01:17:54;6;6;
76661;PMS5003;65579;45.534;6.212;2023-05-14T01:20:15;8;8;
76661;PMS5003;65579;45.534;6.212;2023-05-14T01:22:40;6;6;
76661;PMS5003;65579;45.534;6.212;2023-05-14T01:25:06;7;7;
76661;PMS5003;65579;45.534;6.212;2023-05-14T01:27:33;6;6;
76661;PMS5003;65579;45.534;6.212;2023-05-14T01:29:57;8;6;
76661;PMS5003;65579;45.534;6.212;2023-05-14T01:32:21;5;5;
76661;PMS5003;65579;45.534;6.212;2023-05-14T01:34:46;7;7;
76661;PMS5003;65579;45.534;6.212;2023-05-14T01:37:11;5;5;
76661;PMS5003;65579;45.534;6.212;2023-05-14T01:39:37;5;5;
76661;PMS5003;65579;45.534;6.212;2023-05-14T01:42:02;8;6;
76661;PMS5003;65579;45.534;6.212;2023-05-14T01:44:28;5;4;
76661;PMS5003;65579;45.534;6.212;2023-05-14T01:46:53;7;7;
76661;PMS5003;65579;45.534;6.212;2023-05-14T01:49:18;6;6;
76661;PMS5003;65579;45.534;6.212;2023-05-14T01:51:43;5;5;
76661;PMS5003;65579;45.534;6.212;2023-05-14T01:54:08;9;6;
76661;PMS5003;65579;45.534;6.212;2023-05-14T01:56:33;5;5;
76661;PMS5003;65579;45.534;6.212;2023-05-14T01:58:58;6;6;
76661;PMS5003;65579;45.534;6.212;2023-05-14T02:01:24;8;8;
76661;PMS5003;65579;45.534;6.212;2023-05-14T02:03:49;7;7;
76661;PMS5003;65579;45.534;6.212;2023-05-14T02:06:14;6;6;
76661;PMS5003;65579;45.534;6.212;2023-05-14T02:08:39;6;4;
76661;PMS5003;65579;45.534;6.212;2023-05-14T02:11:04;7;7;
76661;PMS5003;65579;45.534;6.212;2023-05-14T02:13:30;6;6;
76661;PMS5003;65579;45.534;6.212;2023-05-14T02:15:55;7;6;
76661;PMS5003;65579;45.534;6.212;2023-05-14T02:18:20;6;6;
76661;PMS5003;65579;45.534;6.212;2023-05-14T02:20:46;6;6;
76661;PMS5003;65579;45.534;6.212;2023-05-14T02:23:11;6;6;
76661;PMS5003;65579;45.534;6.212;2023-05-14T02:25:36;7;7;
76661;PMS5003;65579;45.534;6.212;2023-05-14T02:28:01;5;5;
76661;PMS5003;65579;45.534;6.212;2023-05-14T02:30:26;5;5;
76661;PMS5003;65579;45.534;6.212;2023-05-14T02:32:51;6;6;
76661;PMS5003;65579;45.534;6.212;2023-05-14T02:35:17;8;8;
76661;PMS5003;65579;45.534;6.212;2023-05-14T02:37:42;7;5;
76661;PMS5003;65579;45.534;6.212;2023-05-14T02:40:08;5;5;
76661;PMS5003;65579;45.534;6.212;2023-05-14T02:42:33;5;5;
76661;PMS5003;65579;45.534;6.212;2023-05-14T02:44:58;3;3;
76661;PMS5003;65579;45.534;6.212;2023-05-14T02:47:23;4;4;
76661;PMS5003;65579;45.534;6.212;2023-05-14T02:49:48;4;4;
76661;PMS5003;65579;45.534;6.212;2023-05-14T02:52:14;6;5;
76661;PMS5003;65579;45.534;6.212;2023-05-14T02:54:38;3;3;
76661;PMS5003;65579;45.534;6.212;2023-05-14T02:57:04;6;6;
76661;PMS5003;65579;45.534;6.212;2023-05-14T02:59:30;5;5;
76661;PMS5003;65579;45.534;6.212;2023-05-14T03:01:55;8;7;
76661;PMS5003;65579;45.534;6.212;2023-05-14T03:04:20;5;5;
76661;PMS5003;65579;45.534;6.212;2023-05-14T03:06:46;6;6;
76661;PMS5003;65579;45.534;6.212;2023-05-14T03:09:11;5;5;
76661;PMS5003;65579;45.534;6.212;2023-05-14T03:11:36;4;4;
76661;PMS5003;65579;45.534;6.212;2023-05-14T03:14:01;4;4;
76661;PMS5003;65579;45.534;6.212;2023-05-14T03:16:26;5;4;
76661;PMS5003;65579;45.534;6.212;2023-05-14T03:18:51;4;4;
76661;PMS5003;65579;45.534;6.212;2023-05-14T03:21:17;5;5;
76661;PMS5003;65579;45.534;6.212;2023-05-14T03:23:42;5;5;
76661;PMS5003;65579;45.534;6.212;2023-05-14T03:26:07;4;4;
76661;PMS5003;65579;45.534;6.212;2023-05-14T03:28:32;5;5;
76661;PMS5003;65579;45.534;6.212;2023-05-14T03:30:57;5;5;
76661;PMS5003;65579;45.534;6.212;2023-05-14T03:33:22;4;4;
76661;PMS5003;65579;45.534;6.212;2023-05-14T03:35:48;3;3;
76661;PMS5003;65579;45.534;6.212;2023-05-14T03:38:13;6;6;
76661;PMS5003;65579;45.534;6.212;2023-05-14T03:40:38;5;5;
76661;PMS5003;65579;45.534;6.212;2023-05-14T03:43:03;4;4;
76661;PMS5003;65579;45.534;6.212;2023-05-14T03:45:29;5;5;
76661;PMS5003;65579;45.534;6.212;2023-05-14T03:47:53;5;5;
76661;PMS5003;65579;45.534;6.212;2023-05-14T03:50:19;6;5;
76661;PMS5003;65579;45.534;6.212;2023-05-14T03:52:44;6;6;
76661;PMS5003;65579;45.534;6.212;2023-05-14T03:55:09;5;5;
76661;PMS5003;65579;45.534;6.212;2023-05-14T03:57:34;8;6;
76661;PMS5003;65579;45.534;6.212;2023-05-14T03:59:59;5;5;
76661;PMS5003;65579;45.534;6.212;2023-05-14T04:02:25;4;4;
76661;PMS5003;65579;45.534;6.212;2023-05-14T04:04:50;6;6;
76661;PMS5003;65579;45.534;6.212;2023-05-14T04:07:15;5;5;
76661;PMS5003;65579;45.534;6.212;2023-05-14T04:09:41;6;6;
76661;PMS5003;65579;45.534;6.212;2023-05-14T04:12:06;7;7;
76661;PMS5003;65579;45.534;6.212;2023-05-14T04:14:31;6;5;
76661;PMS5003;65579;45.534;6.212;2023-05-14T04:16:56;7;6;
76661;PMS5003;65579;45.534;6.212;2023-05-14T04:19:21;6;6;
76661;PMS5003;65579;45.534;6.212;2023-05-14T04:21:46;7;7;
76661;PMS5003;65579;45.534;6.212;2023-05-14T04:24:11;5;5;
76661;PMS5003;65579;45.534;6.212;2023-05-14T04:26:37;6;6;
76661;PMS5003;65579;45.534;6.212;2023-05-14T04:29:02;13;13;
76661;PMS5003;65579;45.534;6.212;2023-05-14T04:31:27;26;23;
76661;PMS5003;65579;45.534;6.212;2023-05-14T04:33:52;20;18;
76661;PMS5003;65579;45.534;6.212;2023-05-14T04:36:18;25;25;
76661;PMS5003;65579;45.534;6.212;2023-05-14T04:38:43;8;8;
76661;PMS5003;65579;45.534;6.212;2023-05-14T04:41:08;9;9;
76661;PMS5003;65579;45.534;6.212;2023-05-14T04:43:33;8;7;
76661;PMS5003;65579;45.534;6.212;2023-05-14T04:45:58;10;9;
76661;PMS5003;65579;45.534;6.212;2023-05-14T04:48:24;7;7;
76661;PMS5003;65579;45.534;6.212;2023-05-14T04:50:49;5;5;
76661;PMS5003;65579;45.534;6.212;2023-05-14T04:53:14;8;8;
76661;PMS5003;65579;45.534;6.212;2023-05-14T04:55:39;8;8;
76661;PMS5003;65579;45.534;6.212;2023-05-14T04:58:04;6;6;
76661;PMS5003;65579;45.534;6.212;2023-05-14T05:00:30;10;7;
76661;PMS5003;65579;45.534;6.212;2023-05-14T05:02:56;7;5;
76661;PMS5003;65579;45.534;6.212;2023-05-14T05:05:21;6;5;
76661;PMS5003;65579;45.534;6.212;2023-05-14T05:07:46;5;4;
76661;PMS5003;65579;45.534;6.212;2023-05-14T05:10:11;5;5;
76661;PMS5003;65579;45.534;6.212;2023-05-14T05:12:37;7;7;
76661;PMS5003;65579;45.534;6.212;2023-05-14T05:15:02;8;8;
76661;PMS5003;65579;45.534;6.212;2023-05-14T05:17:28;5;5;
76661;PMS5003;65579;45.534;6.212;2023-05-14T05:19:52;7;6;
76661;PMS5003;65579;45.534;6.212;2023-05-14T05:22:18;6;6;
76661;PMS5003;65579;45.534;6.212;2023-05-14T05:24:43;5;5;
76661;PMS5003;65579;45.534;6.212;2023-05-14T05:27:08;6;6;
76661;PMS5003;65579;45.534;6.212;2023-05-14T05:29:33;7;7;
76661;PMS5003;65579;45.534;6.212;2023-05-14T05:31:58;7;7;
76661;PMS5003;65579;45.534;6.212;2023-05-14T05:34:24;4;4;
76661;PMS5003;65579;45.534;6.212;2023-05-14T05:36:49;7;7;
76661;PMS5003;65579;45.534;6.212;2023-05-14T05:39:14;4;4;
76661;PMS5003;65579;45.534;6.212;2023-05-14T05:41:39;6;6;
76661;PMS5003;65579;45.534;6.212;2023-05-14T05:44:04;6;6;
76661;PMS5003;65579;45.534;6.212;2023-05-14T05:46:29;5;5;
76661;PMS5003;65579;45.534;6.212;2023-05-14T05:48:54;4;4;
76661;PMS5003;65579;45.534;6.212;2023-05-14T05:51:20;5;5;
76661;PMS5003;65579;45.534;6.212;2023-05-14T05:53:45;5;5;
76661;PMS5003;65579;45.534;6.212;2023-05-14T05:56:10;5;5;
76661;PMS5003;65579;45.534;6.212;2023-05-14T05:58:35;6;6;
76661;PMS5003;65579;45.534;6.212;2023-05-14T06:01:00;7;7;
76661;PMS5003;65579;45.534;6.212;2023-05-14T06:03:25;5;5;
76661;PMS5003;65579;45.534;6.212;2023-05-14T06:05:51;6;4;
76661;PMS5003;65579;45.534;6.212;2023-05-14T06:08:16;7;6;
76661;PMS5003;65579;45.534;6.212;2023-05-14T06:10:41;6;6;
76661;PMS5003;65579;45.534;6.212;2023-05-14T06:13:06;5;5;
76661;PMS5003;65579;45.534;6.212;2023-05-14T06:15:31;6;6;
76661;PMS5003;65579;45.534;6.212;2023-05-14T06:17:57;6;6;
76661;PMS5003;65579;45.534;6.212;2023-05-14T06:20:22;5;5;
76661;PMS5003;65579;45.534;6.212;2023-05-14T06:22:47;5;5;
76661;PMS5003;65579;45.534;6.212;2023-05-14T06:25:13;8;7;
76661;PMS5003;65579;45.534;6.212;2023-05-14T06:27:38;6;5;
76661;PMS5003;65579;45.534;6.212;2023-05-14T06:30:04;7;7;
76661;PMS5003;65579;45.534;6.212;2023-05-14T06:32:28;6;6;
76661;PMS5003;65579;45.534;6.212;2023-05-14T06:34:54;7;7;
76661;PMS5003;65579;45.534;6.212;2023-05-14T06:37:19;7;5;
76661;PMS5003;65579;45.534;6.212;2023-05-14T06:39:44;6;6;
76661;PMS5003;65579;45.534;6.212;2023-05-14T06:42:09;9;9;
76661;PMS5003;65579;45.534;6.212;2023-05-14T06:44:35;5;5;
76661;PMS5003;65579;45.534;6.212;2023-05-14T06:46:59;8;8;
76661;PMS5003;65579;45.534;6.212;2023-05-14T06:49:25;6;6;
76661;PMS5003;65579;45.534;6.212;2023-05-14T06:51:50;8;8;
76661;PMS5003;65579;45.534;6.212;2023-05-14T06:54:15;9;8;
76661;PMS5003;65579;45.534;6.212;2023-05-14T06:56:40;8;8;
76661;PMS5003;65579;45.534;6.212;2023-05-14T06:59:06;10;10;
76661;PMS5003;65579;45.534;6.212;2023-05-14T07:01:31;8;8;
76661;PMS5003;65579;45.534;6.212;2023-05-14T07:03:56;9;7;
76661;PMS5003;65579;45.534;6.212;2023-05-14T07:06:21;10;10;
76661;PMS5003;65579;45.534;6.212;2023-05-14T07:08:47;9;8;
76661;PMS5003;65579;45.534;6.212;2023-05-14T07:11:12;9;9;
76661;PMS5003;65579;45.534;6.212;2023-05-14T07:13:37;7;7;
76661;PMS5003;65579;45.534;6.212;2023-05-14T07:16:02;6;6;
76661;PMS5003;65579;45.534;6.212;2023-05-14T07:18:27;8;8;
76661;PMS5003;65579;45.534;6.212;2023-05-14T07:20:52;9;9;
76661;PMS5003;65579;45.534;6.212;2023-05-14T07:23:18;11;11;
76661;PMS5003;65579;45.534;6.212;2023-05-14T07:25:43;9;8;
76661;PMS5003;65579;45.534;6.212;2023-05-14T07:28:08;7;7;
76661;PMS5003;65579;45.534;6.212;2023-05-14T07:30:33;8;8;
76661;PMS5003;65579;45.534;6.212;2023-05-14T07:32:58;6;6;
76661;PMS5003;65579;45.534;6.212;2023-05-14T07:35:23;6;6;
76661;PMS5003;65579;45.534;6.212;2023-05-14T07:37:48;7;7;
76661;PMS5003;65579;45.534;6.212;2023-05-14T07:40:13;8;8;
76661;PMS5003;65579;45.534;6.212;2023-05-14T07:42:39;7;7;
76661;PMS5003;65579;45.534;6.212;2023-05-14T07:45:04;8;8;
76661;PMS5003;65579;45.534;6.212;2023-05-14T07:47:29;9;7;
76661;PMS5003;65579;45.534;6.212;2023-05-14T07:49:54;7;7;
76661;PMS5003;65579;45.534;6.212;2023-05-14T07:52:19;6;6;
76661;PMS5003;65579;45.534;6.212;2023-05-14T07:54:44;7;7;
76661;PMS5003;65579;45.534;6.212;2023-05-14T07:57:09;6;6;
76661;PMS5003;65579;45.534;6.212;2023-05-14T07:59:35;6;6;
76661;PMS5003;65579;45.534;6.212;2023-05-14T08:02:00;7;7;
76661;PMS5003;65579;45.534;6.212;2023-05-14T08:04:25;8;8;
76661;PMS5003;65579;45.534;6.212;2023-05-14T08:06:50;8;6;
76661;PMS5003;65579;45.534;6.212;2023-05-14T08:09:15;7;7;
76661;PMS5003;65579;45.534;6.212;2023-05-14T08:11:40;8;8;
76661;PMS5003;65579;45.534;6.212;2023-05-14T08:14:05;8;8;
76661;PMS5003;65579;45.534;6.212;2023-05-14T08:16:31;8;8;
76661;PMS5003;65579;45.534;6.212;2023-05-14T08:18:56;8;7;
76661;PMS5003;65579;45.534;6.212;2023-05-14T08:21:21;7;7;
76661;PMS5003;65579;45.534;6.212;2023-05-14T08:23:46;6;6;
76661;PMS5003;65579;45.534;6.212;2023-05-14T08:26:11;7;7;
76661;PMS5003;65579;45.534;6.212;2023-05-14T08:28:36;6;6;
76661;PMS5003;65579;45.534;6.212;2023-05-14T08:31:01;6;6;
76661;PMS5003;65579;45.534;6.212;2023-05-14T08:33:26;11;8;
76661;PMS5003;65579;45.534;6.212;2023-05-14T08:35:52;9;7;
76661;PMS5003;65579;45.534;6.212;2023-05-14T08:38:17;10;8;
76661;PMS5003;65579;45.534;6.212;2023-05-14T08:40:45;10;10;
76661;PMS5003;65579;45.534;6.212;2023-05-14T08:43:07;9;9;
76661;PMS5003;65579;45.534;6.212;2023-05-14T08:45:32;10;10;
76661;PMS5003;65579;45.534;6.212;2023-05-14T08:47:57;9;9;
76661;PMS5003;65579;45.534;6.212;2023-05-14T08:50:22;8;6;
76661;PMS5003;65579;45.534;6.212;2023-05-14T08:52:47;7;7;
76661;PMS5003;65579;45.534;6.212;2023-05-14T08:55:12;8;8;
76661;PMS5003;65579;45.534;6.212;2023-05-14T08:57:37;8;8;
76661;PMS5003;65579;45.534;6.212;2023-05-14T09:00:03;7;7;
76661;PMS5003;65579;45.534;6.212;2023-05-14T09:02:28;8;8;
76661;PMS5003;65579;45.534;6.212;2023-05-14T09:04:53;10;9;
76661;PMS5003;65579;45.534;6.212;2023-05-14T09:07:17;9;9;
76661;PMS5003;65579;45.534;6.212;2023-05-14T09:09:42;12;11;
76661;PMS5003;65579;45.534;6.212;2023-05-14T09:12:08;8;7;
76661;PMS5003;65579;45.534;6.212;2023-05-14T09:14:32;8;8;
76661;PMS5003;65579;45.534;6.212;2023-05-14T09:16:57;9;9;
76661;PMS5003;65579;45.534;6.212;2023-05-14T09:19:23;8;8;
76661;PMS5003;65579;45.534;6.212;2023-05-14T09:21:48;7;7;
76661;PMS5003;65579;45.534;6.212;2023-05-14T09:26:38;9;9;
76661;PMS5003;65579;45.534;6.212;2023-05-14T09:29:03;7;6;
76661;PMS5003;65579;45.534;6.212;2023-05-14T09:31:28;9;9;
76661;PMS5003;65579;45.534;6.212;2023-05-14T09:33:53;5;5;
76661;PMS5003;65579;45.534;6.212;2023-05-14T09:36:18;7;7;
76661;PMS5003;65579;45.534;6.212;2023-05-14T09:38:43;5;5;
76661;PMS5003;65579;45.534;6.212;2023-05-14T09:41:08;8;8;
76661;PMS5003;65579;45.534;6.212;2023-05-14T09:43:33;7;7;
76661;PMS5003;65579;45.534;6.212;2023-05-14T09:45:58;7;7;
76661;PMS5003;65579;45.534;6.212;2023-05-14T09:48:23;9;9;
76661;PMS5003;65579;45.534;6.212;2023-05-14T09:50:48;7;7;
76661;PMS5003;65579;45.534;6.212;2023-05-14T09:53:13;9;9;
76661;PMS5003;65579;45.534;6.212;2023-05-14T09:55:38;8;6;
76661;PMS5003;65579;45.534;6.212;2023-05-14T09:58:03;7;6;
76661;PMS5003;65579;45.534;6.212;2023-05-14T10:00:28;9;9;
76661;PMS5003;65579;45.534;6.212;2023-05-14T10:02:53;6;6;
76661;PMS5003;65579;45.534;6.212;2023-05-14T10:05:18;6;6;
76661;PMS5003;65579;45.534;6.212;2023-05-14T10:07:45;6;6;
76661;PMS5003;65579;45.534;6.212;2023-05-14T10:10:09;7;6;
76661;PMS5003;65579;45.534;6.212;2023-05-14T10:12:33;6;6;
76661;PMS5003;65579;45.534;6.212;2023-05-14T10:15:00;5;5;
76661;PMS5003;65579;45.534;6.212;2023-05-14T10:17:24;6;4;
76661;PMS5003;65579;45.534;6.212;2023-05-14T10:19:51;5;5;
76661;PMS5003;65579;45.534;6.212;2023-05-14T10:22:16;6;6;
76661;PMS5003;65579;45.534;6.212;2023-05-14T10:24:41;5;5;
76661;PMS5003;65579;45.534;6.212;2023-05-14T10:27:07;5;5;
76661;PMS5003;65579;45.534;6.212;2023-05-14T10:29:33;6;4;
76661;PMS5003;65579;45.534;6.212;2023-05-14T10:31:59;3;3;
76661;PMS5003;65579;45.534;6.212;2023-05-14T10:34:30;5;5;
76661;PMS5003;65579;45.534;6.212;2023-05-14T10:36:50;4;4;
76661;PMS5003;65579;45.534;6.212;2023-05-14T10:39:16;5;5;
76661;PMS5003;65579;45.534;6.212;2023-05-14T10:41:41;5;5;
76661;PMS5003;65579;45.534;6.212;2023-05-14T10:44:07;3;3;
76661;PMS5003;65579;45.534;6.212;2023-05-14T10:46:33;1;1;
76661;PMS5003;65579;45.534;6.212;2023-05-14T10:48:59;4;4;
76661;PMS5003;65579;45.534;6.212;2023-05-14T10:51:25;3;3;
76661;PMS5003;65579;45.534;6.212;2023-05-14T10:53:52;3;3;
76661;PMS5003;65579;45.534;6.212;2023-05-14T10:56:16;3;3;
76661;PMS5003;65579;45.534;6.212;2023-05-14T10:58:43;4;4;
76661;PMS5003;65579;45.534;6.212;2023-05-14T11:01:09;3;2;
76661;PMS5003;65579;45.534;6.212;2023-05-14T11:03:38;3;3;
76661;PMS5003;65579;45.534;6.212;2023-05-14T11:06:00;2;2;
76661;PMS5003;65579;45.534;6.212;2023-05-14T11:08:26;3;3;
76661;PMS5003;65579;45.534;6.212;2023-05-14T11:10:53;4;4;
76661;PMS5003;65579;45.534;6.212;2023-05-14T11:13:17;3;3;
76661;PMS5003;65579;45.534;6.212;2023-05-14T11:15:43;3;3;
76661;PMS5003;65579;45.534;6.212;2023-05-14T11:18:08;4;4;
76661;PMS5003;65579;45.534;6.212;2023-05-14T11:20:33;5;4;
76661;PMS5003;65579;45.534;6.212;2023-05-14T11:22:58;3;3;
76661;PMS5003;65579;45.534;6.212;2023-05-14T11:25:23;4;3;
76661;PMS5003;65579;45.534;6.212;2023-05-14T11:27:48;4;4;
76661;PMS5003;65579;45.534;6.212;2023-05-14T11:30:14;3;3;
76661;PMS5003;65579;45.534;6.212;2023-05-14T11:32:38;5;5;
76661;PMS5003;65579;45.534;6.212;2023-05-14T11:35:04;3;3;
76661;PMS5003;65579;45.534;6.212;2023-05-14T11:37:29;5;5;
76661;PMS5003;65579;45.534;6.212;2023-05-14T11:39:58;5;5;
76661;PMS5003;65579;45.534;6.212;2023-05-14T11:42:20;5;4;
76661;PMS5003;65579;45.534;6.212;2023-05-14T11:44:46;5;5;
76661;PMS5003;65579;45.534;6.212;2023-05-14T11:47:11;3;3;
76661;PMS5003;65579;45.534;6.212;2023-05-14T11:49:37;5;5;
76661;PMS5003;65579;45.534;6.212;2023-05-14T11:52:03;4;3;
76661;PMS5003;65579;45.534;6.212;2023-05-14T11:54:29;3;3;
76661;PMS5003;65579;45.534;6.212;2023-05-14T11:56:54;5;5;
76661;PMS5003;65579;45.534;6.212;2023-05-14T11:59:20;2;2;
76661;PMS5003;65579;45.534;6.212;2023-05-14T12:01:46;7;7;
76661;PMS5003;65579;45.534;6.212;2023-05-14T12:04:12;3;3;
76661;PMS5003;65579;45.534;6.212;2023-05-14T12:06:43;5;5;
76661;PMS5003;65579;45.534;6.212;2023-05-14T12:09:04;4;4;
76661;PMS5003;65579;45.534;6.212;2023-05-14T12:11:29;6;4;
76661;PMS5003;65579;45.534;6.212;2023-05-14T12:13:55;4;4;
76661;PMS5003;65579;45.534;6.212;2023-05-14T12:16:21;4;4;
76661;PMS5003;65579;45.534;6.212;2023-05-14T12:18:47;4;4;
76661;PMS5003;65579;45.534;6.212;2023-05-14T12:21:12;4;4;
76661;PMS5003;65579;45.534;6.212;2023-05-14T12:23:38;5;5;
76661;PMS5003;65579;45.534;6.212;2023-05-14T12:26:05;5;5;
76661;PMS5003;65579;45.534;6.212;2023-05-14T12:28:30;4;4;
76661;PMS5003;65579;45.534;6.212;2023-05-14T12:30:56;5;5;
76661;PMS5003;65579;45.534;6.212;2023-05-14T12:33:22;5;5;
76661;PMS5003;65579;45.534;6.212;2023-05-14T12:35:48;5;5;
76661;PMS5003;65579;45.534;6.212;2023-05-14T12:38:13;5;5;
76661;PMS5003;65579;45.534;6.212;2023-05-14T12:40:39;4;4;
76661;PMS5003;65579;45.534;6.212;2023-05-14T12:43:05;6;4;
76661;PMS5003;65579;45.534;6.212;2023-05-14T12:45:30;3;3;
76661;PMS5003;65579;45.534;6.212;2023-05-14T12:47:56;4;4;
76661;PMS5003;65579;45.534;6.212;2023-05-14T12:50:21;5;5;
76661;PMS5003;65579;45.534;6.212;2023-05-14T12:52:46;4;4;
76661;PMS5003;65579;45.534;6.212;2023-05-14T12:55:11;4;4;
76661;PMS5003;65579;45.534;6.212;2023-05-14T12:57:37;5;5;
76661;PMS5003;65579;45.534;6.212;2023-05-14T13:00:03;6;6;
76661;PMS5003;65579;45.534;6.212;2023-05-14T13:02:29;5;5;
76661;PMS5003;65579;45.534;6.212;2023-05-14T13:04:54;5;5;
76661;PMS5003;65579;45.534;6.212;2023-05-14T13:07:21;5;5;
76661;PMS5003;65579;45.534;6.212;2023-05-14T13:09:46;4;4;
76661;PMS5003;65579;45.534;6.212;2023-05-14T13:12:12;5;5;
76661;PMS5003;65579;45.534;6.212;2023-05-14T13:14:38;6;6;
76661;PMS5003;65579;45.534;6.212;2023-05-14T13:17:04;6;6;
76661;PMS5003;65579;45.534;6.212;2023-05-14T13:19:29;5;5;
76661;PMS5003;65579;45.534;6.212;2023-05-14T13:21:55;5;5;
76661;PMS5003;65579;45.534;6.212;2023-05-14T13:24:21;4;4;
76661;PMS5003;65579;45.534;6.212;2023-05-14T13:26:47;6;6;
76661;PMS5003;65579;45.534;6.212;2023-05-14T13:29:13;4;4;
76661;PMS5003;65579;45.534;6.212;2023-05-14T13:31:39;7;7;
76661;PMS5003;65579;45.534;6.212;2023-05-14T13:34:05;7;6;
76661;PMS5003;65579;45.534;6.212;2023-05-14T13:36:31;5;5;
76661;PMS5003;65579;45.534;6.212;2023-05-14T13:38:57;7;6;
76661;PMS5003;65579;45.534;6.212;2023-05-14T13:41:22;7;7;
76661;PMS5003;65579;45.534;6.212;2023-05-14T13:43:48;4;4;
76661;PMS5003;65579;45.534;6.212;2023-05-14T13:46:13;5;5;
76661;PMS5003;65579;45.534;6.212;2023-05-14T13:48:39;5;5;
76661;PMS5003;65579;45.534;6.212;2023-05-14T13:51:05;6;6;
76661;PMS5003;65579;45.534;6.212;2023-05-14T13:53:30;5;4;
76661;PMS5003;65579;45.534;6.212;2023-05-14T13:55:56;6;6;
76661;PMS5003;65579;45.534;6.212;2023-05-14T14:00:47;6;5;
76661;PMS5003;65579;45.534;6.212;2023-05-14T14:03:12;6;6;
76661;PMS5003;65579;45.534;6.212;2023-05-14T14:05:37;8;8;
76661;PMS5003;65579;45.534;6.212;2023-05-14T14:08:02;8;8;
76661;PMS5003;65579;45.534;6.212;2023-05-14T14:10:28;5;5;
76661;PMS5003;65579;45.534;6.212;2023-05-14T14:12:54;6;6;
76661;PMS5003;65579;45.534;6.212;2023-05-14T14:15:20;5;5;
76661;PMS5003;65579;45.534;6.212;2023-05-14T14:17:46;6;6;
76661;PMS5003;65579;45.534;6.212;2023-05-14T14:20:11;7;7;
76661;PMS5003;65579;45.534;6.212;2023-05-14T14:22:37;6;6;
76661;PMS5003;65579;45.534;6.212;2023-05-14T14:25:03;7;7;
76661;PMS5003;65579;45.534;6.212;2023-05-14T14:27:28;4;4;
76661;PMS5003;65579;45.534;6.212;2023-05-14T14:29:54;5;5;
76661;PMS5003;65579;45.534;6.212;2023-05-14T14:32:20;6;6;
76661;PMS5003;65579;45.534;6.212;2023-05-14T14:34:46;5;5;
76661;PMS5003;65579;45.534;6.212;2023-05-14T14:37:12;6;6;
76661;PMS5003;65579;45.534;6.212;2023-05-14T14:39:38;9;9;
76661;PMS5003;65579;45.534;6.212;2023-05-14T14:42:03;7;7;
76661;PMS5003;65579;45.534;6.212;2023-05-14T14:44:27;7;7;
76661;PMS5003;65579;45.534;6.212;2023-05-14T14:46:53;8;8;
76661;PMS5003;65579;45.534;6.212;2023-05-14T14:49:18;5;5;
76661;PMS5003;65579;45.534;6.212;2023-05-14T14:51:43;5;5;
76661;PMS5003;65579;45.534;6.212;2023-05-14T14:54:08;5;5;
76661;PMS5003;65579;45.534;6.212;2023-05-14T14:56:33;6;6;
76661;PMS5003;65579;45.534;6.212;2023-05-14T14:58:58;8;8;
76661;PMS5003;65579;45.534;6.212;2023-05-14T15:01:23;4;4;
76661;PMS5003;65579;45.534;6.212;2023-05-14T15:03:48;7;7;
76661;PMS5003;65579;45.534;6.212;2023-05-14T15:06:13;7;7;
76661;PMS5003;65579;45.534;6.212;2023-05-14T15:08:38;6;6;
76661;PMS5003;65579;45.534;6.212;2023-05-14T15:11:03;8;6;
76661;PMS5003;65579;45.534;6.212;2023-05-14T15:13:28;4;4;
76661;PMS5003;65579;45.534;6.212;2023-05-14T15:15:53;6;6;
76661;PMS5003;65579;45.534;6.212;2023-05-14T15:18:18;4;4;
76661;PMS5003;65579;45.534;6.212;2023-05-14T15:20:43;3;3;
76661;PMS5003;65579;45.534;6.212;2023-05-14T15:23:08;3;3;
76661;PMS5003;65579;45.534;6.212;2023-05-14T15:25:34;6;6;
76661;PMS5003;65579;45.534;6.212;2023-05-14T15:27:59;4;4;
76661;PMS5003;65579;45.534;6.212;2023-05-14T15:30:24;3;3;
76661;PMS5003;65579;45.534;6.212;2023-05-14T15:32:49;4;4;
76661;PMS5003;65579;45.534;6.212;2023-05-14T15:35:14;5;5;
76661;PMS5003;65579;45.534;6.212;2023-05-14T15:37:39;4;4;
76661;PMS5003;65579;45.534;6.212;2023-05-14T15:40:05;5;5;
76661;PMS5003;65579;45.534;6.212;2023-05-14T15:42:29;5;4;
76661;PMS5003;65579;45.534;6.212;2023-05-14T15:44:54;5;5;
76661;PMS5003;65579;45.534;6.212;2023-05-14T15:47:20;4;4;
76661;PMS5003;65579;45.534;6.212;2023-05-14T15:49:45;4;4;
76661;PMS5003;65579;45.534;6.212;2023-05-14T15:52:10;4;4;
76661;PMS5003;65579;45.534;6.212;2023-05-14T15:54:35;5;5;
76661;PMS5003;65579;45.534;6.212;2023-05-14T15:57:00;4;4;
76661;PMS5003;65579;45.534;6.212;2023-05-14T15:59:25;3;3;
76661;PMS5003;65579;45.534;6.212;2023-05-14T16:01:50;6;5;
76661;PMS5003;65579;45.534;6.212;2023-05-14T16:04:15;5;5;
76661;PMS5003;65579;45.534;6.212;2023-05-14T16:06:40;5;5;
76661;PMS5003;65579;45.534;6.212;2023-05-14T16:09:05;3;3;
76661;PMS5003;65579;45.534;6.212;2023-05-14T16:11:31;6;6;
76661;PMS5003;65579;45.534;6.212;2023-05-14T16:13:56;8;6;
76661;PMS5003;65579;45.534;6.212;2023-05-14T16:16:21;5;5;
76661;PMS5003;65579;45.534;6.212;2023-05-14T16:18:46;8;7;
76661;PMS5003;65579;45.534;6.212;2023-05-14T16:21:11;4;4;
76661;PMS5003;65579;45.534;6.212;2023-05-14T16:23:36;5;5;
76661;PMS5003;65579;45.534;6.212;2023-05-14T16:26:04;3;3;
76661;PMS5003;65579;45.534;6.212;2023-05-14T16:28:26;2;2;
76661;PMS5003;65579;45.534;6.212;2023-05-14T16:30:51;6;5;
76661;PMS5003;65579;45.534;6.212;2023-05-14T16:33:16;4;4;
76661;PMS5003;65579;45.534;6.212;2023-05-14T16:35:41;4;4;
76661;PMS5003;65579;45.534;6.212;2023-05-14T16:38:06;4;4;
76661;PMS5003;65579;45.534;6.212;2023-05-14T16:40:31;8;8;